Time;durP1;ratioP1;P1;durP2;ratioP2;P2;SDS_P1;SDS_P2;PMS_P1;PMS_P2;Temp;Humidity;BMP_temperature;BMP_pressure;BME280_temperature;BME280_humidity;BME280_pressure;Samples;Min_cycle;Max_cycle;Signal;HPM_P1;HPM_P2
2022/02/24 00:01:27;;;;;;;;;;;;;;;17.27;50.16;101557.25;4997953;28;20311;-76
2022/02/24 00:03:52;;;;;;;;;;;;;;;17.26;49.90;101550.28;4997716;28;19992;-75
2022/02/24 00:06:22;;;;;;;;;;;;;;;17.26;50.02;101545.09;4981739;28;20334;-75
2022/02/24 00:08:47;;;;;;;;;;;;;;;17.25;50.22;101541.63;4997556;28;20027;-76
2022/02/24 00:11:12;;;;;;;;;;;;;;;17.26;50.08;101539.88;4997704;28;20349;-76
2022/02/24 00:13:37;;;;;;;;;;;;;;;17.25;50.18;101531.22;5015158;28;20317;-75
2022/02/24 00:16:03;;;;;;;;;;;;;;;17.26;49.94;101527.75;4997499;28;20386;-76
2022/02/24 00:18:28;;;;;;;;;;;;;;;17.26;50.04;101535.53;4997262;28;19924;-75
2022/02/24 00:20:53;;;;;;;;;;;;;;;17.26;49.98;101524.28;4981145;28;19925;-76
2022/02/24 00:23:19;;;;;;;;;;;;;;;17.24;50.17;101520.81;4997476;28;19921;-76
2022/02/24 00:25:44;;;;;;;;;;;;;;;17.24;49.78;101520.81;4997376;28;19972;-76
2022/02/24 00:28:09;;;;;;;;;;;;;;;17.24;49.91;101521.66;5014904;28;19914;-75
2022/02/24 00:30:34;;;;;;;;;;;;;;;17.25;49.82;101519.94;4997292;28;19921;-76
2022/02/24 00:32:59;;;;;;;;;;;;;;;17.24;49.78;101521.66;4981051;28;20041;-75
2022/02/24 00:35:25;;;;;;;;;;;;;;;17.24;50.05;101515.59;4980899;28;19917;-76
2022/02/24 00:37:50;;;;;;;;;;;;;;;17.23;49.80;101519.94;5014942;28;19921;-74
2022/02/24 00:40:15;;;;;;;;;;;;;;;17.23;49.86;101504.34;4997144;28;19945;-76
2022/02/24 00:42:40;;;;;;;;;;;;;;;17.23;49.99;101509.53;5014628;28;20364;-76
2022/02/24 00:45:06;;;;;;;;;;;;;;;17.22;50.04;101504.31;4981261;28;19917;-76
2022/02/24 00:47:31;;;;;;;;;;;;;;;17.23;49.74;101506.06;5014671;28;19913;-75
2022/02/24 00:49:56;;;;;;;;;;;;;;;17.22;50.08;101497.41;4997183;28;19924;-76
2022/02/24 00:52:22;;;;;;;;;;;;;;;17.22;49.70;101493.91;4980567;28;20014;-75
2022/02/24 00:54:48;;;;;;;;;;;;;;;17.22;49.81;101491.31;4997287;28;20307;-77
2022/02/24 00:57:13;;;;;;;;;;;;;;;17.22;49.88;101487.00;4997214;28;19925;-75
2022/02/24 00:59:39;;;;;;;;;;;;;;;17.22;49.93;101489.59;4997030;28;19918;-76
2022/02/24 01:02:04;;;;;;;;;;;;;;;17.22;49.74;101483.50;5014548;28;19940;-75
2022/02/24 01:04:29;;;;;;;;;;;;;;;17.21;49.82;101484.38;4996880;28;20287;-76
2022/02/24 01:06:54;;;;;;;;;;;;;;;17.20;49.98;101475.72;4980347;28;19970;-76
2022/02/24 01:09:20;;;;;;;;;;;;;;;17.21;49.81;101472.25;4996687;28;20295;-77
2022/02/24 01:11:45;;;;;;;;;;;;;;;17.20;49.64;101461.84;5014322;28;19968;-76
2022/02/24 01:14:10;;;;;;;;;;;;;;;17.21;49.73;101471.38;4996757;28;19921;-74
2022/02/24 01:16:35;;;;;;;;;;;;;;;17.20;49.59;101457.53;4996721;28;19924;-74
2022/02/24 01:19:01;;;;;;;;;;;;;;;17.19;49.64;101455.78;5014334;28;20269;-76
2022/02/24 01:21:27;;;;;;;;;;;;;;;17.20;49.54;101446.22;4980326;28;20450;-74
2022/02/24 01:23:52;;;;;;;;;;;;;;;17.19;49.51;101434.97;5013949;28;20020;-77
2022/02/24 01:26:17;;;;;;;;;;;;;;;17.19;49.49;101439.31;4980270;28;19957;-76
2022/02/24 01:28:43;;;;;;;;;;;;;;;17.20;49.47;101441.03;4997170;28;20339;-76
2022/02/24 01:31:08;;;;;;;;;;;;;;;17.19;49.59;101429.75;5000552;28;20283;-75
2022/02/24 01:33:33;;;;;;;;;;;;;;;17.19;49.59;101426.31;5000686;28;19922;-77
2022/02/24 01:35:58;;;;;;;;;;;;;;;17.19;49.75;101431.50;5017871;28;19913;-77
2022/02/24 01:38:24;;;;;;;;;;;;;;;17.18;49.58;101430.66;5000390;28;19924;-75
2022/02/24 01:40:49;;;;;;;;;;;;;;;17.19;49.51;101423.69;5017747;28;19965;-76
2022/02/24 01:43:14;;;;;;;;;;;;;;;17.18;49.43;101420.25;5017652;28;19956;-77
2022/02/24 01:45:39;;;;;;;;;;;;;;;17.18;49.74;101419.34;5000167;28;20315;-77
2022/02/24 01:48:04;;;;;;;;;;;;;;;17.18;49.54;101411.53;5000067;28;19918;-77
2022/02/24 01:50:30;;;;;;;;;;;;;;;17.16;49.73;101406.38;4983770;28;19953;-76
2022/02/24 01:52:56;;;;;;;;;;;;;;;17.18;49.43;101398.53;5017478;28;19910;-77
2022/02/24 01:55:21;;;;;;;;;;;;;;;17.18;49.77;101393.34;5017575;28;19917;-76
2022/02/24 01:57:48;;;;;;;;;;;;;;;17.17;49.52;101378.63;5017419;28;19917;-77
2022/02/24 02:00:14;;;;;;;;;;;;;;;17.18;49.57;101388.13;4983894;28;20376;-77
2022/02/24 02:02:39;;;;;;;;;;;;;;;17.17;49.49;101386.41;5017269;28;19917;-77
2022/02/24 02:05:05;;;;;;;;;;;;;;;17.17;49.51;101383.81;5017209;28;19919;-77
2022/02/24 02:07:31;;;;;;;;;;;;;;;17.16;49.46;101380.34;4999534;28;19926;-77
2022/02/24 02:09:57;;;;;;;;;;;;;;;17.16;49.32;101379.47;5017410;28;19913;-77
2022/02/24 02:12:22;;;;;;;;;;;;;;;17.16;49.47;101372.56;4999629;28;20355;-76
2022/02/24 02:14:48;;;;;;;;;;;;;;;17.15;49.61;101373.41;4999471;28;19967;-76
2022/02/24 02:17:14;;;;;;;;;;;;;;;17.15;49.56;101365.59;5017088;28;19957;-76
2022/02/24 02:19:40;;;;;;;;;;;;;;;17.15;49.61;101351.75;4983190;28;19969;-74
2022/02/24 02:22:05;;;;;;;;;;;;;;;17.15;49.46;101357.81;4983020;28;19925;-76
2022/02/24 02:24:30;;;;;;;;;;;;;;;17.15;49.46;101354.34;4983176;28;20435;-76
2022/02/24 02:26:55;;;;;;;;;;;;;;;17.14;49.53;101348.28;4999489;28;19975;-76
2022/02/24 02:29:21;;;;;;;;;;;;;;;17.15;49.55;101346.53;5016962;28;19969;-76
2022/02/24 02:31:46;;;;;;;;;;;;;;;17.14;49.39;101345.69;5017178;28;19959;-77
2022/02/24 02:34:13;;;;;;;;;;;;;;;17.15;49.41;101344.78;4999377;28;19924;-76
2022/02/24 02:36:39;;;;;;;;;;;;;;;17.14;49.43;101335.28;5016935;28;19913;-76
2022/02/24 02:39:04;;;;;;;;;;;;;;;17.14;49.44;101330.06;4999237;28;19988;-77
2022/02/24 02:41:30;;;;;;;;;;;;;;;17.14;49.62;101327.47;5016961;28;19913;-76
2022/02/24 02:43:56;;;;;;;;;;;;;;;17.13;49.53;101323.13;5016540;28;19933;-73
2022/02/24 02:46:21;;;;;;;;;;;;;;;17.13;49.61;101319.66;4998964;28;19917;-74
2022/02/24 02:48:46;;;;;;;;;;;;;;;17.13;49.38;101314.47;4999143;28;19917;-75
2022/02/24 02:51:12;;;;;;;;;;;;;;;17.12;49.65;101313.59;4999169;28;20005;-75
2022/02/24 02:53:37;;;;;;;;;;;;;;;17.11;49.41;101309.25;5016732;28;19945;-75
2022/02/24 02:56:02;;;;;;;;;;;;;;;17.12;49.22;101308.41;4998775;28;19917;-76
2022/02/24 02:58:28;;;;;;;;;;;;;;;17.11;49.62;101298.84;4999066;28;20322;-76
2022/02/24 03:00:53;;;;;;;;;;;;;;;17.12;49.42;101294.53;4998792;28;20391;-76
2022/02/24 03:03:18;;;;;;;;;;;;;;;17.12;49.41;101289.34;5016446;28;20328;-76
2022/02/24 03:05:43;;;;;;;;;;;;;;;17.10;49.46;101289.34;5016255;28;19925;-77
2022/02/24 03:08:08;;;;;;;;;;;;;;;17.11;49.44;101285.00;4998667;28;19928;-75
2022/02/24 03:10:34;;;;;;;;;;;;;;;17.11;49.39;101274.59;4998672;28;19921;-77
2022/02/24 03:12:59;;;;;;;;;;;;;;;17.11;49.47;101277.19;5016380;28;19914;-74
2022/02/24 03:15:24;;;;;;;;;;;;;;;17.10;49.63;101258.13;5016145;28;20286;-77
2022/02/24 03:17:50;;;;;;;;;;;;;;;17.10;49.63;101267.66;5016102;28;19963;-74
2022/02/24 03:20:15;;;;;;;;;;;;;;;17.11;49.58;101264.19;5016388;28;20336;-75
2022/02/24 03:22:41;;;;;;;;;;;;;;;17.10;49.40;101262.47;4998740;28;19925;-77
2022/02/24 03:25:07;;;;;;;;;;;;;;;17.10;49.61;101254.66;4998620;28;19941;-76
2022/02/24 03:27:32;;;;;;;;;;;;;;;17.09;49.34;101256.38;4998345;28;19924;-75
2022/02/24 03:29:57;;;;;;;;;;;;;;;17.09;49.57;101248.56;4998392;28;19956;-77
2022/02/24 03:32:23;;;;;;;;;;;;;;;17.09;49.41;101245.97;4981884;28;19918;-76
2022/02/24 03:34:48;;;;;;;;;;;;;;;17.09;49.42;101234.72;4998166;28;19914;-77
2022/02/24 03:37:14;;;;;;;;;;;;;;;17.06;49.47;101233.84;4998016;28;19917;-76
2022/02/24 03:39:39;;;;;;;;;;;;;;;17.06;49.38;101231.25;4998123;28;19938;-77
2022/02/24 03:42:05;;;;;;;;;;;;;;;17.07;49.43;101232.09;4998080;28;19972;-77
2022/02/24 03:44:30;;;;;;;;;;;;;;;17.07;49.28;101224.31;4997989;28;20391;-76
2022/02/24 03:46:55;;;;;;;;;;;;;;;17.08;49.52;101222.59;5015558;28;20364;-75
2022/02/24 03:49:21;;;;;;;;;;;;;;;17.07;49.53;101219.09;4997894;28;19932;-77
2022/02/24 03:51:46;;;;;;;;;;;;;;;17.06;49.32;101217.38;4997693;28;19918;-75
2022/02/24 03:54:11;;;;;;;;;;;;;;;17.04;49.59;101222.59;4997833;28;19960;-75
2022/02/24 03:56:37;;;;;;;;;;;;;;;17.05;49.50;101226.94;4997739;28;19968;-77
2022/02/24 03:59:02;;;;;;;;;;;;;;;17.06;49.47;101214.78;4981574;28;19924;-75
2022/02/24 04:01:28;;;;;;;;;;;;;;;17.05;49.66;101213.06;4997542;28;19997;-77
2022/02/24 04:03:53;;;;;;;;;;;;;;;17.04;49.56;101219.97;5015160;28;20371;-75
2022/02/24 04:06:18;;;;;;;;;;;;;;;17.04;49.44;101206.97;4997690;28;19917;-76
2022/02/24 04:08:44;;;;;;;;;;;;;;;17.05;49.36;101215.66;5014870;28;19929;-76
2022/02/24 04:11:09;;;;;;;;;;;;;;;17.05;49.55;101218.28;4997541;28;20382;-76
2022/02/24 04:13:34;;;;;;;;;;;;;;;17.04;49.51;101213.91;4997373;28;19917;-76
2022/02/24 04:15:59;;;;;;;;;;;;;;;17.04;49.28;101214.78;4997439;28;19918;-77
2022/02/24 04:18:25;;;;;;;;;;;;;;;17.04;49.36;101219.13;5015071;28;20380;-75
2022/02/24 04:20:50;;;;;;;;;;;;;;;17.03;49.36;101223.47;4997249;28;19917;-75
2022/02/24 04:23:16;;;;;;;;;;;;;;;17.04;49.30;101211.31;4997142;28;19929;-77
2022/02/24 04:25:41;;;;;;;;;;;;;;;17.04;49.46;101214.78;5014960;28;20344;-77
2022/02/24 04:28:06;;;;;;;;;;;;;;;17.03;49.48;101201.81;5014998;28;20383;-77
2022/02/24 04:30:31;;;;;;;;;;;;;;;17.04;49.28;101201.78;4980915;28;19917;-76
2022/02/24 04:32:57;;;;;;;;;;;;;;;17.04;49.46;101198.31;4997124;28;19917;-77
2022/02/24 04:35:22;;;;;;;;;;;;;;;17.03;49.41;101194.00;4997061;28;20283;-75
2022/02/24 04:37:47;;;;;;;;;;;;;;;17.03;49.57;101189.66;5014574;28;19916;-75
2022/02/24 04:40:13;;;;;;;;;;;;;;;17.02;49.37;101179.25;5014616;28;19922;-77
2022/02/24 04:42:38;;;;;;;;;;;;;;;17.02;49.37;101172.31;5014559;28;19921;-76
2022/02/24 04:45:04;;;;;;;;;;;;;;;17.03;49.23;101160.22;5014540;28;19913;-78
2022/02/24 04:47:29;;;;;;;;;;;;;;;17.02;49.41;101156.72;4996974;28;19921;-77
2022/02/24 04:49:54;;;;;;;;;;;;;;;17.02;49.56;101156.72;5014760;28;20268;-75
2022/02/24 04:52:19;;;;;;;;;;;;;;;17.03;49.31;101157.59;4996690;28;19918;-77
2022/02/24 04:54:45;;;;;;;;;;;;;;;17.02;49.32;101154.13;5014373;28;19914;-76
2022/02/24 04:57:10;;;;;;;;;;;;;;;17.01;49.24;101160.19;4996659;28;19923;-77
2022/02/24 04:59:36;;;;;;;;;;;;;;;17.02;49.30;101156.72;5014252;28;20017;-77
2022/02/24 05:02:01;;;;;;;;;;;;;;;17.01;49.53;101157.59;4980556;28;19925;-74
2022/02/24 05:04:26;;;;;;;;;;;;;;;17.01;49.49;101155.00;4995822;28;19925;-75
2022/02/24 05:06:51;;;;;;;;;;;;;;;17.01;49.38;101146.34;4996507;28;19936;-77
2022/02/24 05:09:16;;;;;;;;;;;;;;;17.01;49.47;101143.75;4996712;28;19917;-76
2022/02/24 05:11:42;;;;;;;;;;;;;;;17.00;49.48;101134.19;4996554;28;19964;-76
2022/02/24 05:14:07;;;;;;;;;;;;;;;17.02;49.51;101132.47;5014250;28;20342;-76
2022/02/24 05:16:33;;;;;;;;;;;;;;;17.01;49.43;101122.94;5014038;28;19913;-75
2022/02/24 05:18:58;;;;;;;;;;;;;;;17.01;49.58;101120.34;4996568;28;20261;-77
2022/02/24 05:21:23;;;;;;;;;;;;;;;17.00;49.35;101111.66;4996328;28;19956;-78
2022/02/24 05:23:48;;;;;;;;;;;;;;;17.00;49.33;101108.19;5014089;28;20378;-76
2022/02/24 05:26:14;;;;;;;;;;;;;;;17.00;49.57;101105.59;4996472;28;19952;-75
2022/02/24 05:28:39;;;;;;;;;;;;;;;16.99;49.25;101098.69;4996558;28;20283;-77
2022/02/24 05:31:04;;;;;;;;;;;;;;;17.00;49.29;101090.00;4996919;28;19949;-76
2022/02/24 05:33:30;;;;;;;;;;;;;;;17.00;49.41;101085.66;4996569;28;19925;-76
2022/02/24 05:35:56;;;;;;;;;;;;;;;16.99;49.24;101077.88;5014315;28;19917;-76
2022/02/24 05:38:22;;;;;;;;;;;;;;;17.00;49.43;101074.41;5014146;28;19960;-76
2022/02/24 05:40:47;;;;;;;;;;;;;;;16.99;49.34;101070.94;4996781;28;19917;-75
2022/02/24 05:43:13;;;;;;;;;;;;;;;16.99;49.20;101065.75;4996539;28;20299;-76
2022/02/24 05:45:38;;;;;;;;;;;;;;;16.98;49.36;101066.59;5013945;28;19913;-76
2022/02/24 05:48:03;;;;;;;;;;;;;;;16.99;49.40;101065.75;4980171;28;19918;-76
2022/02/24 05:50:29;;;;;;;;;;;;;;;16.99;49.23;101062.28;5013984;28;19972;-77
2022/02/24 05:52:54;;;;;;;;;;;;;;;16.99;49.23;101054.47;5013952;28;19917;-76
2022/02/24 05:55:19;;;;;;;;;;;;;;;16.99;49.33;101052.75;4996656;28;19926;-75
2022/02/24 05:57:44;;;;;;;;;;;;;;;16.98;49.25;101053.59;4980510;28;19918;-76
2022/02/24 06:00:10;;;;;;;;;;;;;;;16.99;49.07;101046.69;5014163;28;19918;-78
2022/02/24 06:02:36;;;;;;;;;;;;;;;16.99;49.21;101046.69;4996097;28;19917;-75
2022/02/24 06:05:02;;;;;;;;;;;;;;;16.99;49.57;101044.94;5014170;28;20387;-76
2022/02/24 06:07:27;;;;;;;;;;;;;;;17.03;49.60;101043.22;4980102;28;19961;-82
2022/02/24 06:09:52;;;;;;;;;;;;;;;17.02;49.79;101033.66;4980287;28;20019;-80
2022/02/24 06:12:17;;;;;;;;;;;;;;;17.00;49.67;101036.25;4996376;28;19917;-76
2022/02/24 06:14:43;;;;;;;;;;;;;;;16.96;50.06;101029.38;4997070;28;19917;-83
2022/02/24 06:17:08;;;;;;;;;;;;;;;17.11;50.27;101023.22;5019603;28;19924;-85
2022/02/24 06:19:33;;;;;;;;;;;;;;;17.14;50.08;101017.16;5004710;28;19961;-88
2022/02/24 06:21:58;;;;;;;;;;;;;;;17.15;50.21;101024.06;4990358;28;19917;-86
2022/02/24 06:24:24;;;;;;;;;;;;;;;17.17;50.19;101014.53;5010056;28;19921;-88
2022/02/24 06:26:49;;;;;;;;;;;;;;;17.17;50.30;101015.38;4985554;28;19917;-84
2022/02/24 06:29:14;;;;;;;;;;;;;;;17.19;50.06;101018.00;4987090;28;19918;-84
2022/02/24 06:31:40;;;;;;;;;;;;;;;17.19;50.24;101012.78;4985707;28;19918;-85
2022/02/24 06:34:06;;;;;;;;;;;;;;;17.19;50.14;101016.25;4983843;28;19917;-84
2022/02/24 06:36:31;;;;;;;;;;;;;;;17.20;50.12;101011.91;4999827;28;19913;-84
2022/02/24 06:38:57;;;;;;;;;;;;;;;17.20;49.94;101006.69;4999596;28;19917;-84
2022/02/24 06:41:22;;;;;;;;;;;;;;;17.21;50.01;100995.44;4983612;28;20511;-84
2022/02/24 06:43:48;;;;;;;;;;;;;;;17.22;49.83;100989.34;4999433;28;20008;-83
2022/02/24 06:46:13;;;;;;;;;;;;;;;17.23;49.78;100994.56;5000868;28;19964;-87
2022/02/24 06:48:39;;;;;;;;;;;;;;;17.24;49.77;100990.22;5001127;28;19913;-85
2022/02/24 06:51:04;;;;;;;;;;;;;;;17.25;49.80;100982.41;4984854;28;19913;-85
2022/02/24 06:53:29;;;;;;;;;;;;;;;17.26;49.95;100983.25;5000729;28;19923;-82
2022/02/24 06:55:54;;;;;;;;;;;;;;;17.28;49.68;100974.56;4999736;28;20475;-86
2022/02/24 06:58:20;;;;;;;;;;;;;;;17.28;49.85;100973.72;5000305;28;20395;-87
2022/02/24 07:00:45;;;;;;;;;;;;;;;17.27;49.96;100967.66;5001315;28;19940;-87
2022/02/24 07:03:10;;;;;;;;;;;;;;;17.30;50.15;100971.97;5001771;28;19921;-86
2022/02/24 07:05:35;;;;;;;;;;;;;;;17.32;50.03;100972.81;5002688;28;19913;-85
2022/02/24 07:08:02;;;;;;;;;;;;;;;17.34;49.98;100971.09;5019119;28;20025;-85
2022/02/24 07:10:27;;;;;;;;;;;;;;;17.35;50.07;100972.78;4986438;28;19968;-87
2022/02/24 07:12:52;;;;;;;;;;;;;;;17.36;50.05;100958.94;4991640;28;19918;-87
2022/02/24 07:15:18;;;;;;;;;;;;;;;17.37;50.01;100957.19;5007817;28;19913;-88
2022/02/24 07:17:44;;;;;;;;;;;;;;;17.39;50.01;100955.44;5007716;28;19913;-88
2022/02/24 07:20:10;;;;;;;;;;;;;;;17.40;50.20;100946.78;5008289;28;19913;-87
2022/02/24 07:22:36;;;;;;;;;;;;;;;17.41;50.12;100941.53;4992527;28;19921;-87
2022/02/24 07:25:02;;;;;;;;;;;;;;;17.43;50.10;100944.16;5007539;28;19949;-86
2022/02/24 07:27:27;;;;;;;;;;;;;;;17.43;49.89;100950.19;5023700;28;19920;-87
2022/02/24 07:29:52;;;;;;;;;;;;;;;17.45;50.07;100948.47;4990819;28;19969;-85
2022/02/24 07:32:18;;;;;;;;;;;;;;;17.45;49.84;100945.84;4986999;28;19918;-87
2022/02/24 07:34:43;;;;;;;;;;;;;;;17.47;49.88;100936.31;5002195;28;19921;-86
2022/02/24 07:37:08;;;;;;;;;;;;;;;17.51;49.94;100931.94;5001113;28;20324;-86
2022/02/24 07:39:33;;;;;;;;;;;;;;;17.52;49.70;100912.84;5001768;28;19924;-88
2022/02/24 07:41:59;;;;;;;;;;;;;;;17.55;49.84;100917.16;4985287;28;20430;-87
2022/02/24 07:44:24;;;;;;;;;;;;;;;17.57;49.59;100918.00;5001578;28;19960;-86
2022/02/24 07:46:49;;;;;;;;;;;;;;;17.59;49.53;100911.06;4985878;28;19988;-86
2022/02/24 07:49:15;;;;;;;;;;;;;;;17.57;49.62;100902.41;5001508;28;19918;-87
2022/02/24 07:51:40;;;;;;;;;;;;;;;17.56;49.56;100909.34;5000308;28;19918;-86
2022/02/24 07:54:05;;;;;;;;;;;;;;;17.57;49.61;100905.88;4999355;28;19993;-87
2022/02/24 07:56:31;;;;;;;;;;;;;;;17.55;49.70;100906.75;4998833;28;19988;-86
2022/02/24 07:58:56;;;;;;;;;;;;;;;17.51;49.80;100900.72;4999113;28;19925;-82
2022/02/24 08:01:23;;;;;;;;;;;;;;;17.51;49.79;100899.84;4999179;28;19920;-85
2022/02/24 08:03:49;;;;;;;;;;;;;;;17.50;49.97;100906.78;5001972;28;19928;-84
2022/02/24 08:06:14;;;;;;;;;;;;;;;17.52;49.73;100897.25;4998375;28;19913;-85
2022/02/24 08:08:40;;;;;;;;;;;;;;;17.54;49.72;100902.44;4998334;28;20388;-84
2022/02/24 08:11:05;;;;;;;;;;;;;;;17.52;49.86;100894.63;4982280;28;20253;-87
2022/02/24 08:13:30;;;;;;;;;;;;;;;17.50;49.87;100895.53;4998915;28;19921;-84
2022/02/24 08:15:55;;;;;;;;;;;;;;;17.46;49.91;100897.28;4998667;28;20430;-85
2022/02/24 08:18:21;;;;;;;;;;;;;;;17.44;49.81;100899.91;4982208;28;19995;-79
2022/02/24 08:20:46;;;;;;;;;;;;;;;17.45;49.94;100883.41;4997444;28;20279;-80
2022/02/24 08:23:11;;;;;;;;;;;;;;;17.46;50.18;100885.16;4997285;28;19921;-80
2022/02/24 08:25:38;;;;;;;;;;;;;;;17.47;50.05;100879.06;4997219;28;20004;-81
2022/02/24 08:28:03;;;;;;;;;;;;;;;17.47;50.06;100880.81;4981246;28;19917;-81
2022/02/24 08:30:28;;;;;;;;;;;;;;;17.48;50.08;100872.13;4981578;28;19924;-80
2022/02/24 08:32:54;;;;;;;;;;;;;;;17.49;50.01;100866.06;4996918;28;19913;-81
2022/02/24 08:35:20;;;;;;;;;;;;;;;17.53;49.98;100859.06;4997084;28;20011;-80
2022/02/24 08:37:47;;;;;;;;;;;;;;;17.56;49.95;100846.91;4997068;28;20007;-80
2022/02/24 08:40:13;;;;;;;;;;;;;;;17.56;49.88;100827.84;4981094;28;20462;-81
2022/02/24 08:42:38;;;;;;;;;;;;;;;17.59;49.95;100822.59;4996901;28;20036;-81
2022/02/24 08:45:04;;;;;;;;;;;;;;;17.65;49.67;100820.78;4980767;28;19917;-81
2022/02/24 08:47:29;;;;;;;;;;;;;;;17.64;49.67;100821.69;4996923;28;19912;-80
2022/02/24 08:49:54;;;;;;;;;;;;;;;17.64;49.68;100811.25;4996947;28;20287;-79
2022/02/24 08:52:20;;;;;;;;;;;;;;;17.65;49.63;100812.97;4996979;28;19918;-80
2022/02/24 08:54:46;;;;;;;;;;;;;;;17.71;49.52;100804.25;4997004;28;20292;-80
2022/02/24 08:57:12;;;;;;;;;;;;;;;17.85;49.26;100798.91;4997129;28;19921;-84
2022/02/24 08:59:37;;;;;;;;;;;;;;;17.93;49.17;100793.63;4997142;28;19913;-82
2022/02/24 09:02:03;;;;;;;;;;;;;;;17.97;49.01;100785.78;4980600;28;19918;-85
2022/02/24 09:04:28;;;;;;;;;;;;;;;17.96;49.25;100794.44;4980488;28;19921;-83
2022/02/24 09:06:53;;;;;;;;;;;;;;;17.91;49.10;100788.44;5014193;28;19925;-82
2022/02/24 09:09:19;;;;;;;;;;;;;;;17.90;49.19;100781.53;4996662;28;20356;-82
2022/02/24 09:11:44;;;;;;;;;;;;;;;17.94;50.87;100779.72;4996789;28;19917;-80
2022/02/24 09:14:09;;;;;;;;;;;;;;;17.94;49.57;100775.38;5014255;28;20390;-81
2022/02/24 09:16:35;;;;;;;;;;;;;;;17.93;49.43;100768.47;4996697;28;19913;-80
2022/02/24 09:19:00;;;;;;;;;;;;;;;17.92;49.21;100763.25;4996804;28;20253;-83
2022/02/24 09:21:26;;;;;;;;;;;;;;;17.89;49.39;100753.75;4981002;28;19940;-84
2022/02/24 09:23:51;;;;;;;;;;;;;;;17.90;49.25;100739.88;4980311;28;19956;-79
2022/02/24 09:26:17;;;;;;;;;;;;;;;17.89;49.35;100727.72;4980315;28;19917;-78
2022/02/24 09:28:42;;;;;;;;;;;;;;;17.92;49.24;100708.59;4996525;28;19921;-79
2022/02/24 09:31:07;;;;;;;;;;;;;;;17.97;49.26;100717.22;5014048;28;19914;-81
2022/02/24 09:33:33;;;;;;;;;;;;;;;18.01;49.45;100711.94;4980246;28;20303;-79
2022/02/24 09:35:58;;;;;;;;;;;;;;;18.09;49.51;100693.59;4996531;28;19920;-77
2022/02/24 09:38:24;;;;;;;;;;;;;;;18.17;49.38;100703.94;4996646;28;19913;-78
2022/02/24 09:40:52;;;;;;;;;;;;;;;18.24;49.02;100705.56;4996525;28;19963;-78
2022/02/24 09:43:18;;;;;;;;;;;;;;;18.29;49.16;100683.78;4996365;28;19918;-77
2022/02/24 09:45:45;;;;;;;;;;;;;;;18.27;49.24;100662.09;4996391;28;20008;-77
2022/02/24 09:48:13;;;;;;;;;;;;;;;18.29;49.46;100654.25;4996343;28;19965;-80
2022/02/24 09:50:39;;;;;;;;;;;;;;;18.28;49.50;100645.56;5016329;28;19924;-82
2022/02/24 09:53:05;;;;;;;;;;;;;;;18.26;49.34;100636.06;5000247;28;19918;-77
2022/02/24 09:55:30;;;;;;;;;;;;;;;18.22;49.56;100648.25;5017749;28;20418;-77
2022/02/24 09:57:55;;;;;;;;;;;;;;;18.15;49.61;100651.84;5000254;28;19917;-83
2022/02/24 10:00:21;;;;;;;;;;;;;;;18.13;49.60;100643.19;5000066;28;19960;-79
2022/02/24 10:02:46;;;;;;;;;;;;;;;18.08;49.74;100642.41;5000107;28;19917;-81
2022/02/24 10:05:12;;;;;;;;;;;;;;;18.09;50.43;100623.28;4999997;28;19925;-78
2022/02/24 10:07:41;;;;;;;;;;;;;;;18.13;50.12;100618.91;5000160;28;20017;-82
2022/02/24 10:10:31;;;;;;;;;;;;;;;18.10;50.03;100609.41;5000068;28;20012;-81
2022/02/24 10:13:15;;;;;;;;;;;;;;;18.07;50.16;100614.66;4999755;28;19914;-79
2022/02/24 10:16:00;;;;;;;;;;;;;;;18.05;50.23;100601.66;4999966;28;20331;-78
2022/02/24 10:18:30;;;;;;;;;;;;;;;18.04;50.09;100604.28;5017540;28;19913;-79
2022/02/24 10:20:58;;;;;;;;;;;;;;;18.04;49.85;100580.84;4999928;28;19914;-78
2022/02/24 10:23:35;;;;;;;;;;;;;;;18.08;49.81;100580.78;4999663;28;19917;-79
2022/02/24 10:26:02;;;;;;;;;;;;;;;18.15;49.58;100584.16;5017659;28;20004;-79
2022/02/24 10:28:27;;;;;;;;;;;;;;;18.13;49.71;100592.88;4999779;28;19936;-80
2022/02/24 10:30:53;;;;;;;;;;;;;;;18.09;49.75;100579.91;5018336;28;20371;-79
2022/02/24 10:33:24;;;;;;;;;;;;;;;18.06;49.77;100579.94;4984156;28;19924;-78
2022/02/24 10:35:49;;;;;;;;;;;;;;;18.00;49.87;100590.44;5018013;28;19917;-77
2022/02/24 10:38:15;;;;;;;;;;;;;;;17.95;49.97;100574.03;5000261;28;19913;-78
2022/02/24 10:40:41;;;;;;;;;;;;;;;17.94;49.81;100571.44;4984413;28;20287;-80
2022/02/24 10:43:13;;;;;;;;;;;;;;;17.91;50.05;100555.91;5001977;28;19924;-83
2022/02/24 10:45:39;;;;;;;;;;;;;;;17.85;49.94;100562.88;5003774;28;20283;-84
2022/02/24 10:48:05;;;;;;;;;;;;;;;17.84;50.19;100555.13;4985237;28;19976;-83
2022/02/24 10:50:49;;;;;;;;;;;;;;;17.80;50.00;100549.06;5022660;28;19914;-83
2022/02/24 10:53:15;;;;;;;;;;;;;;;17.81;50.23;100540.38;5021009;28;20269;-80
2022/02/24 10:55:53;;;;;;;;;;;;;;;17.83;50.08;100536.06;5004326;28;19960;-81
2022/02/24 10:58:19;;;;;;;;;;;;;;;17.82;50.03;100530.88;4987756;28;20307;-82
2022/02/24 11:00:44;;;;;;;;;;;;;;;17.81;50.21;100532.59;5021331;28;19917;-82
2022/02/24 11:03:10;;;;;;;;;;;;;;;17.86;50.11;100528.19;4983250;28;19929;-82
2022/02/24 11:05:36;;;;;;;;;;;;;;;17.92;50.74;100516.84;5016824;28;19940;-83
2022/02/24 11:08:01;;;;;;;;;;;;;;;17.96;51.43;100510.66;5016832;28;20008;-77
2022/02/24 11:10:27;;;;;;;;;;;;;;;17.99;51.90;100507.19;5016619;28;20283;-79
2022/02/24 11:12:55;;;;;;;;;;;;;;;17.95;51.65;100506.34;5016526;28;19913;-77
2022/02/24 11:15:20;;;;;;;;;;;;;;;17.92;51.65;100506.41;5016504;28;19920;-78
2022/02/24 11:17:50;;;;;;;;;;;;;;;17.89;51.55;100489.06;4998980;28;19917;-85
2022/02/24 11:20:15;;;;;;;;;;;;;;;18.01;51.98;100497.59;4983547;28;20372;-88
2022/02/24 11:22:41;;;;;;;;;;;;;;;17.92;51.58;100489.91;4999277;28;19928;-87
2022/02/24 11:25:08;;;;;;;;;;;;;;;17.86;51.78;100489.16;4983656;28;20390;-89
2022/02/24 11:27:35;;;;;;;;;;;;;;;17.84;51.35;100484.84;4999452;28;19996;-86
2022/02/24 11:30:04;;;;;;;;;;;;;;;17.80;51.43;100486.59;4998783;28;19936;-85
2022/02/24 11:32:30;;;;;;;;;;;;;;;17.77;51.30;100481.44;4999450;28;19953;-88
2022/02/24 11:35:00;;;;;;;;;;;;;;;17.77;51.08;100480.56;4999510;28;19914;-86
2022/02/24 11:37:45;;;;;;;;;;;;;;;17.75;50.86;100480.63;4998693;28;19928;-85
2022/02/24 11:40:36;;;;;;;;;;;;;;;17.73;50.58;100471.97;5016457;28;19913;-87
2022/02/24 11:43:24;;;;;;;;;;;;;;;17.73;50.62;100474.56;5001397;28;19925;-84
2022/02/24 11:45:50;;;;;;;;;;;;;;;17.72;50.67;100475.44;4999211;28;19921;-86
2022/02/24 11:48:20;;;;;;;;;;;;;;;17.76;50.35;100463.25;5000337;28;19918;-83
2022/02/24 11:50:53;;;;;;;;;;;;;;;17.73;50.72;100445.94;4999480;28;19936;-87
2022/02/24 11:53:38;;;;;;;;;;;;;;;17.74;50.63;100441.59;5017526;28;19914;-87
2022/02/24 11:56:19;;;;;;;;;;;;;;;17.76;50.71;100440.69;4999673;28;19914;-85
2022/02/24 11:58:49;;;;;;;;;;;;;;;17.77;50.75;100449.34;4999103;28;19913;-86
2022/02/24 12:01:23;;;;;;;;;;;;;;;17.77;50.98;100442.41;5000551;28;19914;-87
2022/02/24 12:03:53;;;;;;;;;;;;;;;17.76;50.92;100440.69;5003624;28;19924;-86
2022/02/24 12:06:20;;;;;;;;;;;;;;;17.76;50.79;100458.91;5003226;28;19925;-87
2022/02/24 12:09:04;;;;;;;;;;;;;;;17.74;51.05;100465.88;4999405;28;19921;-86
2022/02/24 12:11:30;;;;;;;;;;;;;;;17.73;51.10;100453.75;4998572;28;19921;-85
2022/02/24 12:13:56;;;;;;;;;;;;;;;17.72;51.13;100443.38;4997963;28;19914;-85
2022/02/24 12:16:23;;;;;;;;;;;;;;;17.73;51.20;100440.75;4998274;28;19936;-86
2022/02/24 12:18:49;;;;;;;;;;;;;;;17.71;51.36;100452.91;4998701;28;19913;-86
2022/02/24 12:21:36;;;;;;;;;;;;;;;17.70;51.36;100472.00;4982023;28;19924;-86
2022/02/24 12:24:04;;;;;;;;;;;;;;;17.69;51.54;100460.75;4998868;28;20447;-87
2022/02/24 12:26:42;;;;;;;;;;;;;;;17.70;51.54;100466.81;5019231;28;20025;-86
2022/02/24 12:29:20;;;;;;;;;;;;;;;17.70;51.67;100466.81;4998315;28;19913;-87
2022/02/24 12:31:46;;;;;;;;;;;;;;;17.71;51.58;100468.53;4999155;28;20423;-88